Terminal Aerodrome Forecast
Issued by NWS

Home | Current Version | Previous Version | Text Only | Print | Product List | Glossary On
Versions: 1 2 3 4 5 6 7 8 9 10 11 12 13 14 15 16 17 18 19 20 21 22 23 24 25 26 27 28 29 30 31 32
000
FTUS44 KHGX 240527
TAFUTS
TAF
KUTS 240527Z 2406/2506 15006KT 6SM BR SCT004 OVC012
     FM240900 15008KT 4SM BR VCSH SCT004 OVC008
     FM241700 17012G20KT P6SM OVC012
     FM242100 21010KT P6SM VCTS BKN020CB
     FM250100 27005KT P6SM VCSH BKN050 OVC100=

USA.gov is the U.S. government's official web portal to all federal, state and local government web resources and services.